Kezdőlap
METAR-TAF:

METAR-TAF

Repülőterek :

Albenga, Olaszország

földrajzi szélesség: 44-03N, földrajzi hosszúság: 008-07E, magasság: 45 m

Jelenlegi meteorológiai megfigyelések

A jelentés 44 perccel ezelõtt készült, 08:50 UTC
Szélcsend
Hőmérséklet 4°C
Páratartalom 93%
Légköri nyomás 1014 hPa
Látótávolság 10 km, vagy több
Szakadozott felhőzet 3500 lábon

METAR: LIMG 280850Z 00000KT 9999 BKN035 04/03 Q1014

Idő: 10:34 (09:34 UTC)


TAF: hiányzik

Meteorológiai megfigyelések és előrejelzések több, mint 4000 repülőtéren (METAR és TAF jelentéseket).

A térképen piros és sárga pontok jelzik az elérhető meteorológiai állomásokat.

Mozgassa az egeret a pont fölött, hogy megjelenjen az állomás neve.

Azután kattintson az időjárási megfigyelések és előrejelzések megtekintéséhez.

A térkép megváltoztatása: kattintson a fekete keresztel jelölt zöld gombra ráközelítéshez, a vonallal jelölt zöld gombra távolításhoz, vagy a zöld nyilakra a szomszédos térképek eléréséhez.


METAR-TAF: